sensor_id;sensor_type;location;lat;lon;timestamp;P1;durP1;ratioP1;P2;durP2;ratioP2
59734;SDS011;64362;45.620;4.920;2023-07-02T00:01:03;11.15;;;6.43;;
59734;SDS011;64362;45.620;4.920;2023-07-02T00:03:29;10.43;;;6.80;;
59734;SDS011;64362;45.620;4.920;2023-07-02T00:05:54;12.63;;;7.55;;
59734;SDS011;64362;45.620;4.920;2023-07-02T00:08:24;9.45;;;6.75;;
59734;SDS011;64362;45.620;4.920;2023-07-02T00:10:49;10.38;;;7.40;;
59734;SDS011;64362;45.620;4.920;2023-07-02T00:13:15;12.77;;;8.25;;
59734;SDS011;64362;45.620;4.920;2023-07-02T00:15:40;12.63;;;8.60;;
59734;SDS011;64362;45.620;4.920;2023-07-02T00:18:06;13.57;;;8.93;;
59734;SDS011;64362;45.620;4.920;2023-07-02T00:20:32;14.77;;;9.40;;
59734;SDS011;64362;45.620;4.920;2023-07-02T00:23:00;12.45;;;9.00;;
59734;SDS011;64362;45.620;4.920;2023-07-02T00:25:26;14.07;;;9.23;;
59734;SDS011;64362;45.620;4.920;2023-07-02T00:27:51;15.60;;;10.13;;
59734;SDS011;64362;45.620;4.920;2023-07-02T00:30:17;15.00;;;10.30;;
59734;SDS011;64362;45.620;4.920;2023-07-02T00:32:43;15.88;;;9.57;;
59734;SDS011;64362;45.620;4.920;2023-07-02T00:35:09;15.18;;;10.05;;
59734;SDS011;64362;45.620;4.920;2023-07-02T00:37:35;16.23;;;10.40;;
59734;SDS011;64362;45.620;4.920;2023-07-02T00:40:01;17.05;;;10.27;;
59734;SDS011;64362;45.620;4.920;2023-07-02T00:42:28;15.88;;;10.40;;
59734;SDS011;64362;45.620;4.920;2023-07-02T00:44:55;17.90;;;10.93;;
59734;SDS011;64362;45.620;4.920;2023-07-02T00:47:22;17.33;;;10.52;;
59734;SDS011;64362;45.620;4.920;2023-07-02T00:49:48;16.88;;;11.18;;
59734;SDS011;64362;45.620;4.920;2023-07-02T00:52:14;16.55;;;11.00;;
59734;SDS011;64362;45.620;4.920;2023-07-02T00:54:40;15.52;;;10.80;;
59734;SDS011;64362;45.620;4.920;2023-07-02T00:57:06;18.23;;;11.70;;
59734;SDS011;64362;45.620;4.920;2023-07-02T00:59:31;19.05;;;12.70;;
59734;SDS011;64362;45.620;4.920;2023-07-02T01:02:01;17.58;;;11.88;;
59734;SDS011;64362;45.620;4.920;2023-07-02T01:04:27;16.48;;;12.45;;
59734;SDS011;64362;45.620;4.920;2023-07-02T01:06:53;15.57;;;11.82;;
59734;SDS011;64362;45.620;4.920;2023-07-02T01:09:25;16.42;;;11.88;;
59734;SDS011;64362;45.620;4.920;2023-07-02T01:11:54;18.38;;;12.13;;
59734;SDS011;64362;45.620;4.920;2023-07-02T01:14:25;17.38;;;13.27;;
59734;SDS011;64362;45.620;4.920;2023-07-02T01:16:52;18.88;;;12.23;;
59734;SDS011;64362;45.620;4.920;2023-07-02T01:19:20;20.00;;;13.27;;
59734;SDS011;64362;45.620;4.920;2023-07-02T01:21:47;21.77;;;13.73;;
59734;SDS011;64362;45.620;4.920;2023-07-02T01:24:13;16.90;;;12.85;;
59734;SDS011;64362;45.620;4.920;2023-07-02T01:26:39;16.50;;;12.75;;
59734;SDS011;64362;45.620;4.920;2023-07-02T01:31:39;21.30;;;14.25;;
59734;SDS011;64362;45.620;4.920;2023-07-02T01:34:05;18.00;;;13.38;;
59734;SDS011;64362;45.620;4.920;2023-07-02T01:36:32;19.80;;;13.90;;
59734;SDS011;64362;45.620;4.920;2023-07-02T01:38:58;18.38;;;13.90;;
59734;SDS011;64362;45.620;4.920;2023-07-02T01:41:24;18.13;;;13.15;;
59734;SDS011;64362;45.620;4.920;2023-07-02T01:43:49;18.20;;;13.77;;
59734;SDS011;64362;45.620;4.920;2023-07-02T01:46:15;19.35;;;14.65;;
59734;SDS011;64362;45.620;4.920;2023-07-02T01:48:40;19.85;;;14.02;;
59734;SDS011;64362;45.620;4.920;2023-07-02T01:51:06;20.40;;;14.88;;
59734;SDS011;64362;45.620;4.920;2023-07-02T01:53:31;23.30;;;14.43;;
59734;SDS011;64362;45.620;4.920;2023-07-02T01:55:57;18.98;;;13.48;;
59734;SDS011;64362;45.620;4.920;2023-07-02T01:58:22;17.83;;;13.65;;
59734;SDS011;64362;45.620;4.920;2023-07-02T02:00:47;20.92;;;15.05;;
59734;SDS011;64362;45.620;4.920;2023-07-02T02:03:13;21.85;;;14.98;;
59734;SDS011;64362;45.620;4.920;2023-07-02T02:05:39;22.00;;;14.93;;
59734;SDS011;64362;45.620;4.920;2023-07-02T02:08:04;20.05;;;14.30;;
59734;SDS011;64362;45.620;4.920;2023-07-02T02:10:30;19.48;;;14.38;;
59734;SDS011;64362;45.620;4.920;2023-07-02T02:12:55;21.58;;;14.57;;
59734;SDS011;64362;45.620;4.920;2023-07-02T02:15:21;24.05;;;15.40;;
59734;SDS011;64362;45.620;4.920;2023-07-02T02:17:46;19.17;;;14.18;;
59734;SDS011;64362;45.620;4.920;2023-07-02T02:20:12;23.23;;;15.55;;
59734;SDS011;64362;45.620;4.920;2023-07-02T02:22:37;23.77;;;15.65;;
59734;SDS011;64362;45.620;4.920;2023-07-02T02:25:03;21.77;;;15.05;;
59734;SDS011;64362;45.620;4.920;2023-07-02T02:27:29;23.38;;;15.32;;
59734;SDS011;64362;45.620;4.920;2023-07-02T02:29:55;24.13;;;15.25;;
59734;SDS011;64362;45.620;4.920;2023-07-02T02:32:21;22.92;;;15.63;;
59734;SDS011;64362;45.620;4.920;2023-07-02T02:34:47;24.75;;;15.48;;
59734;SDS011;64362;45.620;4.920;2023-07-02T02:37:13;20.35;;;15.13;;
59734;SDS011;64362;45.620;4.920;2023-07-02T02:39:39;21.58;;;15.73;;
59734;SDS011;64362;45.620;4.920;2023-07-02T02:42:05;22.00;;;15.45;;
59734;SDS011;64362;45.620;4.920;2023-07-02T02:44:31;22.23;;;15.80;;
59734;SDS011;64362;45.620;4.920;2023-07-02T02:46:58;23.75;;;16.15;;
59734;SDS011;64362;45.620;4.920;2023-07-02T02:49:24;25.40;;;16.17;;
59734;SDS011;64362;45.620;4.920;2023-07-02T02:51:50;23.90;;;16.73;;
59734;SDS011;64362;45.620;4.920;2023-07-02T02:54:16;22.27;;;14.73;;
59734;SDS011;64362;45.620;4.920;2023-07-02T02:56:42;23.27;;;16.38;;
59734;SDS011;64362;45.620;4.920;2023-07-02T02:59:08;23.67;;;16.30;;
59734;SDS011;64362;45.620;4.920;2023-07-02T03:01:33;23.70;;;15.73;;
59734;SDS011;64362;45.620;4.920;2023-07-02T03:03:59;23.55;;;15.85;;
59734;SDS011;64362;45.620;4.920;2023-07-02T03:06:24;24.85;;;15.93;;
59734;SDS011;64362;45.620;4.920;2023-07-02T03:08:50;21.98;;;15.80;;
59734;SDS011;64362;45.620;4.920;2023-07-02T03:11:15;23.55;;;16.38;;
59734;SDS011;64362;45.620;4.920;2023-07-02T03:13:41;22.15;;;16.10;;
59734;SDS011;64362;45.620;4.920;2023-07-02T03:16:06;24.83;;;16.67;;
59734;SDS011;64362;45.620;4.920;2023-07-02T03:18:32;23.05;;;16.75;;
59734;SDS011;64362;45.620;4.920;2023-07-02T03:20:58;22.20;;;15.68;;
59734;SDS011;64362;45.620;4.920;2023-07-02T03:23:24;23.42;;;16.08;;
59734;SDS011;64362;45.620;4.920;2023-07-02T03:25:49;26.23;;;16.35;;
59734;SDS011;64362;45.620;4.920;2023-07-02T03:28:15;21.48;;;14.93;;
59734;SDS011;64362;45.620;4.920;2023-07-02T03:30:40;21.30;;;15.85;;
59734;SDS011;64362;45.620;4.920;2023-07-02T03:33:06;21.48;;;15.35;;
59734;SDS011;64362;45.620;4.920;2023-07-02T03:35:33;20.67;;;15.57;;
59734;SDS011;64362;45.620;4.920;2023-07-02T03:37:58;23.98;;;16.02;;
59734;SDS011;64362;45.620;4.920;2023-07-02T03:40:24;23.20;;;16.63;;
59734;SDS011;64362;45.620;4.920;2023-07-02T03:42:49;24.30;;;16.42;;
59734;SDS011;64362;45.620;4.920;2023-07-02T03:45:14;22.85;;;16.35;;
59734;SDS011;64362;45.620;4.920;2023-07-02T03:47:40;26.15;;;15.88;;
59734;SDS011;64362;45.620;4.920;2023-07-02T03:50:05;23.52;;;16.70;;
59734;SDS011;64362;45.620;4.920;2023-07-02T03:52:31;22.38;;;15.32;;
59734;SDS011;64362;45.620;4.920;2023-07-02T03:54:57;25.50;;;15.85;;
59734;SDS011;64362;45.620;4.920;2023-07-02T03:57:22;22.33;;;16.10;;
59734;SDS011;64362;45.620;4.920;2023-07-02T03:59:48;23.20;;;14.80;;
59734;SDS011;64362;45.620;4.920;2023-07-02T04:02:13;20.20;;;14.48;;
59734;SDS011;64362;45.620;4.920;2023-07-02T04:04:39;21.25;;;14.48;;
59734;SDS011;64362;45.620;4.920;2023-07-02T04:07:04;19.27;;;14.95;;
59734;SDS011;64362;45.620;4.920;2023-07-02T04:09:30;23.02;;;14.70;;
59734;SDS011;64362;45.620;4.920;2023-07-02T04:11:58;24.98;;;15.75;;
59734;SDS011;64362;45.620;4.920;2023-07-02T04:14:23;23.38;;;15.25;;
59734;SDS011;64362;45.620;4.920;2023-07-02T04:16:49;21.90;;;15.57;;
59734;SDS011;64362;45.620;4.920;2023-07-02T04:19:14;19.88;;;13.55;;
59734;SDS011;64362;45.620;4.920;2023-07-02T04:21:40;21.08;;;14.73;;
59734;SDS011;64362;45.620;4.920;2023-07-02T04:24:05;21.08;;;14.77;;
59734;SDS011;64362;45.620;4.920;2023-07-02T04:26:31;19.77;;;15.05;;
59734;SDS011;64362;45.620;4.920;2023-07-02T04:28:56;19.42;;;13.93;;
59734;SDS011;64362;45.620;4.920;2023-07-02T04:31:22;21.00;;;15.07;;
59734;SDS011;64362;45.620;4.920;2023-07-02T04:33:47;20.50;;;14.50;;
59734;SDS011;64362;45.620;4.920;2023-07-02T04:36:13;20.80;;;13.88;;
59734;SDS011;64362;45.620;4.920;2023-07-02T04:38:38;20.42;;;15.30;;
59734;SDS011;64362;45.620;4.920;2023-07-02T04:41:04;21.05;;;14.52;;
59734;SDS011;64362;45.620;4.920;2023-07-02T04:43:33;19.10;;;14.70;;
59734;SDS011;64362;45.620;4.920;2023-07-02T04:45:59;18.80;;;13.23;;
59734;SDS011;64362;45.620;4.920;2023-07-02T04:48:24;20.08;;;14.25;;
59734;SDS011;64362;45.620;4.920;2023-07-02T04:50:50;21.15;;;15.02;;
59734;SDS011;64362;45.620;4.920;2023-07-02T04:53:15;17.20;;;13.40;;
59734;SDS011;64362;45.620;4.920;2023-07-02T04:55:41;19.92;;;13.45;;
59734;SDS011;64362;45.620;4.920;2023-07-02T04:58:07;19.05;;;13.32;;
59734;SDS011;64362;45.620;4.920;2023-07-02T05:00:32;23.10;;;14.90;;
59734;SDS011;64362;45.620;4.920;2023-07-02T05:02:58;22.30;;;14.25;;
59734;SDS011;64362;45.620;4.920;2023-07-02T05:05:23;19.58;;;13.70;;
59734;SDS011;64362;45.620;4.920;2023-07-02T05:07:49;20.38;;;13.63;;
59734;SDS011;64362;45.620;4.920;2023-07-02T05:10:14;19.65;;;13.15;;
59734;SDS011;64362;45.620;4.920;2023-07-02T05:12:40;18.55;;;13.23;;
59734;SDS011;64362;45.620;4.920;2023-07-02T05:15:05;19.90;;;13.93;;
59734;SDS011;64362;45.620;4.920;2023-07-02T05:17:31;21.35;;;14.35;;
59734;SDS011;64362;45.620;4.920;2023-07-02T05:20:00;21.85;;;14.48;;
59734;SDS011;64362;45.620;4.920;2023-07-02T05:22:26;17.30;;;13.43;;
59734;SDS011;64362;45.620;4.920;2023-07-02T05:24:51;17.55;;;13.52;;
59734;SDS011;64362;45.620;4.920;2023-07-02T05:27:17;18.33;;;14.45;;
59734;SDS011;64362;45.620;4.920;2023-07-02T05:29:43;20.65;;;13.88;;
59734;SDS011;64362;45.620;4.920;2023-07-02T05:32:08;19.38;;;14.38;;
59734;SDS011;64362;45.620;4.920;2023-07-02T05:34:34;20.55;;;13.80;;
59734;SDS011;64362;45.620;4.920;2023-07-02T05:36:59;19.42;;;13.60;;
59734;SDS011;64362;45.620;4.920;2023-07-02T05:39:25;19.60;;;13.95;;
59734;SDS011;64362;45.620;4.920;2023-07-02T05:41:50;16.73;;;12.90;;
59734;SDS011;64362;45.620;4.920;2023-07-02T05:44:16;21.38;;;14.40;;
59734;SDS011;64362;45.620;4.920;2023-07-02T05:46:41;20.30;;;13.60;;
59734;SDS011;64362;45.620;4.920;2023-07-02T05:49:07;18.83;;;14.13;;
59734;SDS011;64362;45.620;4.920;2023-07-02T05:51:33;17.90;;;12.80;;
59734;SDS011;64362;45.620;4.920;2023-07-02T05:53:58;18.95;;;14.45;;
59734;SDS011;64362;45.620;4.920;2023-07-02T05:56:23;18.75;;;14.20;;
59734;SDS011;64362;45.620;4.920;2023-07-02T05:58:49;22.48;;;14.52;;
59734;SDS011;64362;45.620;4.920;2023-07-02T06:01:15;22.25;;;14.57;;
59734;SDS011;64362;45.620;4.920;2023-07-02T06:03:41;21.75;;;14.38;;
59734;SDS011;64362;45.620;4.920;2023-07-02T06:06:08;22.33;;;15.32;;
59734;SDS011;64362;45.620;4.920;2023-07-02T06:08:33;24.05;;;16.20;;
59734;SDS011;64362;45.620;4.920;2023-07-02T06:10:59;21.52;;;14.98;;
59734;SDS011;64362;45.620;4.920;2023-07-02T06:13:24;22.27;;;15.45;;
59734;SDS011;64362;45.620;4.920;2023-07-02T06:15:50;22.23;;;15.02;;
59734;SDS011;64362;45.620;4.920;2023-07-02T06:18:15;22.45;;;15.45;;
59734;SDS011;64362;45.620;4.920;2023-07-02T06:20:42;21.42;;;15.35;;
59734;SDS011;64362;45.620;4.920;2023-07-02T06:23:08;25.58;;;16.52;;
59734;SDS011;64362;45.620;4.920;2023-07-02T06:25:33;26.17;;;16.88;;
59734;SDS011;64362;45.620;4.920;2023-07-02T06:27:59;26.30;;;15.63;;
59734;SDS011;64362;45.620;4.920;2023-07-02T06:30:25;25.80;;;16.10;;
59734;SDS011;64362;45.620;4.920;2023-07-02T06:32:50;27.25;;;16.63;;
59734;SDS011;64362;45.620;4.920;2023-07-02T06:35:16;28.05;;;16.88;;
59734;SDS011;64362;45.620;4.920;2023-07-02T06:37:41;26.48;;;16.17;;
59734;SDS011;64362;45.620;4.920;2023-07-02T06:40:07;27.48;;;16.00;;
59734;SDS011;64362;45.620;4.920;2023-07-02T06:42:33;25.90;;;16.38;;
59734;SDS011;64362;45.620;4.920;2023-07-02T06:45:01;25.10;;;16.40;;
59734;SDS011;64362;45.620;4.920;2023-07-02T06:47:27;27.35;;;17.02;;
59734;SDS011;64362;45.620;4.920;2023-07-02T06:49:52;27.98;;;17.70;;
59734;SDS011;64362;45.620;4.920;2023-07-02T06:52:18;27.00;;;17.45;;
59734;SDS011;64362;45.620;4.920;2023-07-02T06:54:43;26.58;;;17.27;;
59734;SDS011;64362;45.620;4.920;2023-07-02T06:57:09;28.70;;;17.45;;
59734;SDS011;64362;45.620;4.920;2023-07-02T06:59:34;29.27;;;17.92;;
59734;SDS011;64362;45.620;4.920;2023-07-02T07:02:00;39.58;;;19.58;;
59734;SDS011;64362;45.620;4.920;2023-07-02T07:04:26;27.98;;;18.40;;
59734;SDS011;64362;45.620;4.920;2023-07-02T07:06:53;29.30;;;18.80;;
59734;SDS011;64362;45.620;4.920;2023-07-02T07:09:20;28.98;;;18.13;;
59734;SDS011;64362;45.620;4.920;2023-07-02T07:11:46;31.85;;;18.20;;
59734;SDS011;64362;45.620;4.920;2023-07-02T07:14:11;31.75;;;18.45;;
59734;SDS011;64362;45.620;4.920;2023-07-02T07:16:37;30.35;;;20.08;;
59734;SDS011;64362;45.620;4.920;2023-07-02T07:19:02;30.58;;;18.63;;
59734;SDS011;64362;45.620;4.920;2023-07-02T07:21:28;28.40;;;19.13;;
59734;SDS011;64362;45.620;4.920;2023-07-02T07:23:54;30.52;;;19.10;;
59734;SDS011;64362;45.620;4.920;2023-07-02T07:26:19;30.63;;;19.63;;
59734;SDS011;64362;45.620;4.920;2023-07-02T07:28:45;31.38;;;19.98;;
59734;SDS011;64362;45.620;4.920;2023-07-02T07:31:13;32.17;;;19.40;;
59734;SDS011;64362;45.620;4.920;2023-07-02T07:33:38;31.52;;;18.02;;
59734;SDS011;64362;45.620;4.920;2023-07-02T07:36:04;31.08;;;19.60;;
59734;SDS011;64362;45.620;4.920;2023-07-02T07:38:29;26.75;;;18.42;;
59734;SDS011;64362;45.620;4.920;2023-07-02T07:40:55;29.90;;;18.65;;
59734;SDS011;64362;45.620;4.920;2023-07-02T07:43:20;27.27;;;18.85;;
59734;SDS011;64362;45.620;4.920;2023-07-02T07:45:46;30.00;;;18.38;;
59734;SDS011;64362;45.620;4.920;2023-07-02T07:48:11;26.95;;;18.17;;
59734;SDS011;64362;45.620;4.920;2023-07-02T07:50:36;26.90;;;18.83;;
59734;SDS011;64362;45.620;4.920;2023-07-02T07:53:02;26.05;;;18.15;;
59734;SDS011;64362;45.620;4.920;2023-07-02T07:55:28;25.15;;;18.02;;
59734;SDS011;64362;45.620;4.920;2023-07-02T07:57:53;28.63;;;18.75;;
59734;SDS011;64362;45.620;4.920;2023-07-02T08:00:19;28.40;;;18.98;;
59734;SDS011;64362;45.620;4.920;2023-07-02T08:02:47;26.02;;;18.42;;
59734;SDS011;64362;45.620;4.920;2023-07-02T08:05:13;29.08;;;19.30;;
59734;SDS011;64362;45.620;4.920;2023-07-02T08:07:39;28.02;;;18.85;;
59734;SDS011;64362;45.620;4.920;2023-07-02T08:10:05;28.92;;;19.58;;
59734;SDS011;64362;45.620;4.920;2023-07-02T08:12:33;30.08;;;18.90;;
59734;SDS011;64362;45.620;4.920;2023-07-02T08:14:58;29.10;;;18.95;;
59734;SDS011;64362;45.620;4.920;2023-07-02T08:17:24;26.38;;;18.00;;
59734;SDS011;64362;45.620;4.920;2023-07-02T08:19:49;26.85;;;17.45;;
59734;SDS011;64362;45.620;4.920;2023-07-02T08:22:15;29.52;;;17.98;;
59734;SDS011;64362;45.620;4.920;2023-07-02T08:24:40;25.30;;;17.08;;
59734;SDS011;64362;45.620;4.920;2023-07-02T08:27:06;27.85;;;16.88;;
59734;SDS011;64362;45.620;4.920;2023-07-02T08:29:32;26.48;;;16.98;;
59734;SDS011;64362;45.620;4.920;2023-07-02T08:31:57;26.23;;;16.98;;
59734;SDS011;64362;45.620;4.920;2023-07-02T08:34:23;26.70;;;15.45;;
59734;SDS011;64362;45.620;4.920;2023-07-02T08:36:49;25.45;;;15.40;;
59734;SDS011;64362;45.620;4.920;2023-07-02T08:39:15;24.08;;;15.27;;
59734;SDS011;64362;45.620;4.920;2023-07-02T08:41:42;23.70;;;15.23;;
59734;SDS011;64362;45.620;4.920;2023-07-02T08:44:11;25.38;;;15.85;;
59734;SDS011;64362;45.620;4.920;2023-07-02T08:46:40;24.40;;;15.27;;
59734;SDS011;64362;45.620;4.920;2023-07-02T08:49:07;23.25;;;13.40;;
59734;SDS011;64362;45.620;4.920;2023-07-02T08:51:32;23.70;;;13.65;;
59734;SDS011;64362;45.620;4.920;2023-07-02T08:53:58;26.17;;;13.52;;
59734;SDS011;64362;45.620;4.920;2023-07-02T08:56:23;23.67;;;13.52;;
59734;SDS011;64362;45.620;4.920;2023-07-02T08:58:49;25.70;;;14.48;;
59734;SDS011;64362;45.620;4.920;2023-07-02T09:01:15;26.88;;;13.35;;
59734;SDS011;64362;45.620;4.920;2023-07-02T09:03:40;26.33;;;12.75;;
59734;SDS011;64362;45.620;4.920;2023-07-02T09:06:07;24.73;;;12.82;;
59734;SDS011;64362;45.620;4.920;2023-07-02T09:08:33;22.67;;;13.02;;
59734;SDS011;64362;45.620;4.920;2023-07-02T09:11:12;27.52;;;12.55;;
59734;SDS011;64362;45.620;4.920;2023-07-02T09:13:48;26.50;;;12.65;;
59734;SDS011;64362;45.620;4.920;2023-07-02T09:19:05;24.67;;;12.30;;
59734;SDS011;64362;45.620;4.920;2023-07-02T09:24:18;21.75;;;11.68;;
59734;SDS011;64362;45.620;4.920;2023-07-02T09:26:49;23.50;;;11.93;;
59734;SDS011;64362;45.620;4.920;2023-07-02T09:29:25;24.27;;;11.65;;
59734;SDS011;64362;45.620;4.920;2023-07-02T09:31:53;16.05;;;10.18;;
59734;SDS011;64362;45.620;4.920;2023-07-02T09:34:25;18.83;;;10.35;;
59734;SDS011;64362;45.620;4.920;2023-07-02T09:37:01;17.20;;;10.77;;
59734;SDS011;64362;45.620;4.920;2023-07-02T09:39:27;17.98;;;10.50;;
59734;SDS011;64362;45.620;4.920;2023-07-02T09:41:55;16.67;;;10.38;;
59734;SDS011;64362;45.620;4.920;2023-07-02T09:44:22;17.45;;;9.98;;
59734;SDS011;64362;45.620;4.920;2023-07-02T09:46:53;15.75;;;10.18;;
59734;SDS011;64362;45.620;4.920;2023-07-02T09:49:34;19.85;;;11.85;;
59734;SDS011;64362;45.620;4.920;2023-07-02T09:52:33;27.58;;;19.83;;
59734;SDS011;64362;45.620;4.920;2023-07-02T09:54:59;38.92;;;27.23;;
59734;SDS011;64362;45.620;4.920;2023-07-02T09:57:25;522.47;;;71.10;;
59734;SDS011;64362;45.620;4.920;2023-07-02T09:59:51;450.15;;;190.10;;
59734;SDS011;64362;45.620;4.920;2023-07-02T10:02:17;240.13;;;64.32;;
59734;SDS011;64362;45.620;4.920;2023-07-02T10:04:43;159.52;;;38.88;;
59734;SDS011;64362;45.620;4.920;2023-07-02T10:07:13;132.02;;;32.38;;
59734;SDS011;64362;45.620;4.920;2023-07-02T10:09:49;118.60;;;28.10;;
59734;SDS011;64362;45.620;4.920;2023-07-02T10:12:21;34.60;;;15.23;;
59734;SDS011;64362;45.620;4.920;2023-07-02T10:14:48;25.35;;;12.32;;
59734;SDS011;64362;45.620;4.920;2023-07-02T10:17:28;44.67;;;33.20;;
59734;SDS011;64362;45.620;4.920;2023-07-02T10:19:56;65.05;;;43.95;;
59734;SDS011;64362;45.620;4.920;2023-07-02T10:25:09;31.63;;;20.05;;
59734;SDS011;64362;45.620;4.920;2023-07-02T10:27:35;18.75;;;12.18;;
59734;SDS011;64362;45.620;4.920;2023-07-02T10:30:02;16.13;;;10.88;;
59734;SDS011;64362;45.620;4.920;2023-07-02T10:32:28;14.40;;;10.65;;
59734;SDS011;64362;45.620;4.920;2023-07-02T10:34:54;16.80;;;11.50;;
59734;SDS011;64362;45.620;4.920;2023-07-02T10:37:20;243.10;;;194.18;;
59734;SDS011;64362;45.620;4.920;2023-07-02T10:39:45;108.55;;;81.10;;
59734;SDS011;64362;45.620;4.920;2023-07-02T10:42:11;119.82;;;89.25;;
59734;SDS011;64362;45.620;4.920;2023-07-02T10:44:52;136.00;;;99.95;;
59734;SDS011;64362;45.620;4.920;2023-07-02T10:47:18;133.43;;;94.68;;
59734;SDS011;64362;45.620;4.920;2023-07-02T10:49:44;92.30;;;65.72;;
59734;SDS011;64362;45.620;4.920;2023-07-02T10:52:10;86.45;;;60.60;;
59734;SDS011;64362;45.620;4.920;2023-07-02T10:54:39;67.03;;;48.05;;
59734;SDS011;64362;45.620;4.920;2023-07-02T10:57:06;70.80;;;51.33;;
59734;SDS011;64362;45.620;4.920;2023-07-02T10:59:32;30.27;;;22.70;;
59734;SDS011;64362;45.620;4.920;2023-07-02T11:01:57;22.90;;;14.15;;
59734;SDS011;64362;45.620;4.920;2023-07-02T11:04:27;20.38;;;13.73;;
59734;SDS011;64362;45.620;4.920;2023-07-02T11:06:53;11.63;;;8.20;;
59734;SDS011;64362;45.620;4.920;2023-07-02T11:09:18;13.88;;;7.97;;
59734;SDS011;64362;45.620;4.920;2023-07-02T11:14:31;16.13;;;11.75;;
59734;SDS011;64362;45.620;4.920;2023-07-02T11:16:58;14.57;;;11.25;;
59734;SDS011;64362;45.620;4.920;2023-07-02T11:19:28;234.27;;;210.05;;
59734;SDS011;64362;45.620;4.920;2023-07-02T11:21:54;113.57;;;101.20;;
59734;SDS011;64362;45.620;4.920;2023-07-02T11:26:53;53.35;;;43.80;;
59734;SDS011;64362;45.620;4.920;2023-07-02T11:29:18;49.63;;;39.20;;
59734;SDS011;64362;45.620;4.920;2023-07-02T11:31:44;26.17;;;21.42;;
59734;SDS011;64362;45.620;4.920;2023-07-02T11:34:16;24.50;;;18.23;;
59734;SDS011;64362;45.620;4.920;2023-07-02T11:36:43;16.92;;;12.77;;
59734;SDS011;64362;45.620;4.920;2023-07-02T11:39:09;14.50;;;9.57;;
59734;SDS011;64362;45.620;4.920;2023-07-02T11:41:42;13.90;;;8.88;;
59734;SDS011;64362;45.620;4.920;2023-07-02T11:44:09;10.23;;;7.47;;
59734;SDS011;64362;45.620;4.920;2023-07-02T11:46:35;9.90;;;7.35;;
59734;SDS011;64362;45.620;4.920;2023-07-02T11:49:01;11.45;;;7.68;;
59734;SDS011;64362;45.620;4.920;2023-07-02T11:51:27;9.88;;;7.18;;
59734;SDS011;64362;45.620;4.920;2023-07-02T11:53:52;11.43;;;7.45;;
59734;SDS011;64362;45.620;4.920;2023-07-02T11:56:18;13.57;;;7.97;;
59734;SDS011;64362;45.620;4.920;2023-07-02T11:58:43;11.90;;;7.13;;
59734;SDS011;64362;45.620;4.920;2023-07-02T12:01:09;13.73;;;7.03;;
59734;SDS011;64362;45.620;4.920;2023-07-02T12:03:34;17.35;;;7.65;;
59734;SDS011;64362;45.620;4.920;2023-07-02T12:06:00;12.60;;;7.40;;
59734;SDS011;64362;45.620;4.920;2023-07-02T12:08:25;13.52;;;6.93;;
59734;SDS011;64362;45.620;4.920;2023-07-02T12:10:51;11.55;;;7.07;;
59734;SDS011;64362;45.620;4.920;2023-07-02T12:13:16;13.38;;;7.28;;
59734;SDS011;64362;45.620;4.920;2023-07-02T12:15:42;10.48;;;7.07;;
59734;SDS011;64362;45.620;4.920;2023-07-02T12:18:08;11.20;;;7.10;;
59734;SDS011;64362;45.620;4.920;2023-07-02T12:20:34;10.35;;;7.03;;
59734;SDS011;64362;45.620;4.920;2023-07-02T12:22:59;11.90;;;7.60;;
59734;SDS011;64362;45.620;4.920;2023-07-02T12:25:25;13.15;;;6.95;;
59734;SDS011;64362;45.620;4.920;2023-07-02T12:27:50;11.02;;;6.00;;
59734;SDS011;64362;45.620;4.920;2023-07-02T12:30:16;11.90;;;6.78;;
59734;SDS011;64362;45.620;4.920;2023-07-02T12:32:42;10.55;;;6.05;;
59734;SDS011;64362;45.620;4.920;2023-07-02T12:35:09;8.38;;;6.10;;
59734;SDS011;64362;45.620;4.920;2023-07-02T12:37:34;7.93;;;6.22;;
59734;SDS011;64362;45.620;4.920;2023-07-02T12:40:00;7.22;;;5.40;;
59734;SDS011;64362;45.620;4.920;2023-07-02T12:42:26;9.48;;;5.80;;
59734;SDS011;64362;45.620;4.920;2023-07-02T12:44:51;8.10;;;5.20;;
59734;SDS011;64362;45.620;4.920;2023-07-02T12:47:17;8.07;;;5.82;;
59734;SDS011;64362;45.620;4.920;2023-07-02T12:49:43;7.10;;;5.20;;
59734;SDS011;64362;45.620;4.920;2023-07-02T12:52:08;9.15;;;5.55;;
59734;SDS011;64362;45.620;4.920;2023-07-02T12:54:34;7.55;;;4.78;;
59734;SDS011;64362;45.620;4.920;2023-07-02T12:56:59;9.00;;;4.40;;
59734;SDS011;64362;45.620;4.920;2023-07-02T12:59:24;9.75;;;4.97;;
59734;SDS011;64362;45.620;4.920;2023-07-02T13:01:50;11.63;;;4.97;;
59734;SDS011;64362;45.620;4.920;2023-07-02T13:04:16;12.48;;;5.63;;
59734;SDS011;64362;45.620;4.920;2023-07-02T13:06:42;16.27;;;5.35;;
59734;SDS011;64362;45.620;4.920;2023-07-02T13:09:09;13.32;;;5.47;;
59734;SDS011;64362;45.620;4.920;2023-07-02T13:11:35;17.55;;;5.68;;
59734;SDS011;64362;45.620;4.920;2023-07-02T13:14:00;15.48;;;5.50;;
59734;SDS011;64362;45.620;4.920;2023-07-02T13:16:26;14.57;;;5.13;;
59734;SDS011;64362;45.620;4.920;2023-07-02T13:18:51;17.65;;;6.00;;
59734;SDS011;64362;45.620;4.920;2023-07-02T13:21:17;14.30;;;5.40;;
59734;SDS011;64362;45.620;4.920;2023-07-02T13:23:43;15.80;;;6.38;;
59734;SDS011;64362;45.620;4.920;2023-07-02T13:26:09;18.88;;;7.03;;
59734;SDS011;64362;45.620;4.920;2023-07-02T13:28:34;17.20;;;7.50;;
59734;SDS011;64362;45.620;4.920;2023-07-02T13:30:59;13.52;;;8.30;;
59734;SDS011;64362;45.620;4.920;2023-07-02T13:33:25;14.63;;;10.18;;
59734;SDS011;64362;45.620;4.920;2023-07-02T13:35:51;17.95;;;10.13;;
59734;SDS011;64362;45.620;4.920;2023-07-02T13:38:16;12.43;;;9.65;;
59734;SDS011;64362;45.620;4.920;2023-07-02T13:40:42;16.45;;;9.57;;
59734;SDS011;64362;45.620;4.920;2023-07-02T13:43:07;14.48;;;9.95;;
59734;SDS011;64362;45.620;4.920;2023-07-02T13:45:33;15.40;;;10.48;;
59734;SDS011;64362;45.620;4.920;2023-07-02T13:47:58;13.88;;;9.75;;
59734;SDS011;64362;45.620;4.920;2023-07-02T13:50:24;13.80;;;8.50;;
59734;SDS011;64362;45.620;4.920;2023-07-02T13:52:49;12.45;;;8.20;;
59734;SDS011;64362;45.620;4.920;2023-07-02T13:55:15;11.65;;;8.13;;
59734;SDS011;64362;45.620;4.920;2023-07-02T13:57:40;10.02;;;6.80;;
59734;SDS011;64362;45.620;4.920;2023-07-02T14:00:06;12.73;;;7.22;;
59734;SDS011;64362;45.620;4.920;2023-07-02T14:02:32;9.13;;;6.18;;
59734;SDS011;64362;45.620;4.920;2023-07-02T14:04:58;10.43;;;6.00;;
59734;SDS011;64362;45.620;4.920;2023-07-02T14:07:23;9.77;;;5.53;;
59734;SDS011;64362;45.620;4.920;2023-07-02T14:09:49;7.10;;;4.90;;
59734;SDS011;64362;45.620;4.920;2023-07-02T14:12:15;7.57;;;4.72;;
59734;SDS011;64362;45.620;4.920;2023-07-02T14:14:40;7.63;;;4.15;;
59734;SDS011;64362;45.620;4.920;2023-07-02T14:17:06;8.73;;;4.63;;
59734;SDS011;64362;45.620;4.920;2023-07-02T14:19:32;7.72;;;4.55;;
59734;SDS011;64362;45.620;4.920;2023-07-02T14:21:58;7.38;;;4.30;;
59734;SDS011;64362;45.620;4.920;2023-07-02T14:24:23;7.88;;;4.88;;
59734;SDS011;64362;45.620;4.920;2023-07-02T14:26:49;10.20;;;4.60;;
59734;SDS011;64362;45.620;4.920;2023-07-02T14:29:14;6.72;;;4.05;;
59734;SDS011;64362;45.620;4.920;2023-07-02T14:31:40;6.78;;;4.32;;
59734;SDS011;64362;45.620;4.920;2023-07-02T14:34:05;7.10;;;4.50;;
59734;SDS011;64362;45.620;4.920;2023-07-02T14:36:31;6.70;;;4.38;;